Terminal Aerodrome Forecast
Issued by NWS

Home | Current Version | Previous Version | Text Only | Print | Product List | Glossary Off
Versions: 1 2 3 4 5 6 7 8 9 10 11 12 13 14 15 16 17 18 19 20 21 22 23 24 25 26 27 28 29 30 31 32 33 34

000
FTUS43 KLOT 251900 AAA
TAFORD
TAF AMD
KORD 251947Z 2520/2624 31016G24KT P6SM FEW250
     FM252300 30010KT P6SM FEW250
     FM260700 32007KT P6SM SKC
     FM261300 VRB03KT P6SM FEW250
     FM261900 16007KT P6SM FEW100=

USA.gov is the U.S. government's official web portal to all federal, state and local government web resources and services.